Race Coverage Navigation

TS # 27 / Maize, KS  2019

 


TS STATS
TS Distance 76.93 
Total Distance 1620.14 
Miles To Go 1450.14 
TS Climbing 1571 
Total Climbing
TS  Elevation
TS  Net Elevation 2491 
Map Filename Open Map 
Directions Filename  
Latitude 37.78 
Longitude -97.46 
Google Map  TimeStation Map 


TS Arrival Data
Arr Ord  #/Name Arrival DT TS Dst Avg This TS Avg Overall
 1 377 - Christoph Strasser  06/15/2019 15:32 76.93  17.82  17.08 
 2 279 - Marko Baloh  06/16/2019 5:12 76.93  11.26  14.92 
 3 288 - Dave Haase  06/16/2019 8:54 76.93  11.23  14.43 
 4 609 - Jakob Olsen  06/16/2019 11:35 76.93  17.16  14.06 
 5 617 - SOLO.kiwi (Craig Harper)  06/16/2019 15:08 76.93  15.54  13.63 
 6 529 - Isa Pulver  06/16/2019 15:36 76.93  14.7  13.56 
 7 612 - Markus K. Brandl  06/16/2019 18:30 76.93  14.84  13.26 
 8 329 - Peter Oyler  06/16/2019 21:28 76.93  15.97  12.97 
 9 622 - Thomas Odom-Team Kyle Pease Foundation  06/16/2019 22:20 76.93  14.79  12.84 
 10 416 - Leah Goldstein  06/17/2019 0:35 76.93  13.99  12.61 
 11 623 - Ultra Paka Racing Team (Daniel Polman)  06/17/2019 1:28 76.93  15.7  12.53 
 12 367 - Daniela Genovesi  06/17/2019 1:37 76.93  16.97  12.51 
 13 603 - Alan Bradley  06/17/2019 7:00 76.93  13.19  12.04 
 14 615 - Philipp Amhof  06/17/2019 7:44 76.93  16.78  11.96 
 15 604 - Chieko Ozawa  06/17/2019 12:16 76.93  9.72  11.55 
 16 568 - Alexandra Meixner  06/17/2019 12:38 76.93  10.21  11.53 
 17 611 - Marcelo Soares " MIXIRICA "  06/17/2019 12:48 76.93  13.19  11.53 
 18 559 - Team Martin RAAM 2019 (Martin Bergmeister)  06/17/2019 13:56 76.93  16.72  11.45 
 19 510 - John C. Tarlton  06/17/2019 14:20 76.93  14.12  11.42 
 20 442 - Joe Barr  06/17/2019 15:40 76.93  9.5  11.32 
 21 411 - Geoff Brunner  06/17/2019 15:51 76.93  14.38  11.31 
 22 610 - Kabir Rachure  06/17/2019 19:43 76.93  11.93  10.99 
 23 399 - Valerio Zamboni  06/18/2019 1:51 76.93  10.21  10.57 
 24 424 - Team i RON man Veterans supporting Veterans  06/18/2019 7:19 76.93  9.27  10.2 
 25 618 - GREGORY ROBINSON  06/18/2019 7:51 76.93  8.21  10.15 
 26 161 - Seana Hogan  06/18/2019 10:21 76.93  12.79  9.99 
 27 608 - Elin Starup  06/18/2019 13:57 76.93  12.31  9.76 
 28 T411 - team alpha - tischlerei groemmer  06/18/2019 14:32 76.93  24.82  22.76 
 29 T800 - Backstedt Racing Project 14  06/18/2019 15:07 76.93  24.95  22.62 
 30 T401 - Data Techniques powered by Networks Centre  06/18/2019 18:27 76.93  21.98  21.53 
 31 T404 - Gentlemen of speed  06/18/2019 18:33 76.93  23.43  21.51 
 32 605 - Christian Echavarria  06/18/2019 18:47 76.93  12.58  9.51 
 33 T201 - EAT WELL  06/18/2019 22:56 76.93  20.33  20.27 
 34 T805 - Team Oceanside  06/18/2019 23:11 76.93  19.31  20.35 
 35 T807 - Team ZOE International  06/19/2019 0:05 76.93  20.79  20.13 
 36 T407 - Julian Becker   06/19/2019 0:13 76.93  20.7  20.02 
 37 T802 - Scorchers  06/19/2019 2:23 76.93  19.64  19.55 
 38 T412 - Team Aspect  06/19/2019 2:44 76.93  19.39  19.43 
 39 T416 - Team Rotary Raams Polio  06/19/2019 3:04 76.93  19.64  19.37 
 40 T804 - Team FSHD Skyland Trail  06/19/2019 4:01 76.93  19.56  19.18 
 41 T408 - Radeln-fuer-Kinder (Cycling-for-Kids)  06/19/2019 4:24 76.93  19.07  19.04 
 42 T400 - Cantastic4  06/19/2019 5:19 76.93  20.33  18.81 
 43 T406 - Operation Walk Midwest  06/19/2019 6:04 76.93  18.32  18.67 
 44 T808 - Antonia's Friends 2019  06/19/2019 6:18 76.93  19.23  18.69 
 45 T418 - The Opportunists  06/19/2019 9:04 76.93  19.39  18.08 
 46 T410 - Soap-Aid  06/19/2019 11:34 76.93  16.78  17.57 
 47 T414 - Brazil Nuts  06/19/2019 12:28 76.93  16.72  17.41 
 48 T202 - Integra Medical - BAA Racing  06/19/2019 13:13 76.93  18.76  17.2 
 49 T803 - Team EndoPark  06/19/2019 14:08 76.93  18.84  17.13 
 50 T405 - High Rollers  06/19/2019 14:17 76.93  15.65  17.05 
 51 T415 - TEAM FIRE VELO 935  06/19/2019 14:54 76.93  19  16.97 
 52 T403 - EKJ Denmark  06/19/2019 15:00 76.93  19.9  16.91 
 53 T206 - Project Linear Acceleration  06/19/2019 15:05 76.93  18.92  16.88 
 54 T204 - Lucan CRC  06/19/2019 16:06 76.93  18.69  16.7 
 55 T413 - TEAM BRASIL - SKIPPER  06/19/2019 16:53 76.93  18.17  16.62 
 56 T402 - EA/WFP RAAM Team  06/19/2019 17:29 76.93  20.07  16.48 
 57 T806 - Team SuperMarrow  06/19/2019 18:29 76.93  15.65  16.38 
 58 T801 - Mind Over Matter  06/19/2019 18:51 76.93  18.76  16.31 
 59 T417 - Team4RAAM 2019 powered by TGW Living Logistics  06/19/2019 20:22 76.93  18.46  16.05 
 60 T200 - AIR RELAX GoPro TEAM BRASIL  06/19/2019 21:13 76.93  20.79  15.85 
 61 T207 - Team Life Time  06/20/2019 2:57 76.93  14.75  15.02 
 62 T409 - Serpentine Golden Girls  06/20/2019 4:05 76.93  15.59  14.9 
 63 T203 - JPsDuo  06/20/2019 6:55 76.93  14.29  14.48 
 64 T210 - Bike Wine Team  06/20/2019 12:05 76.93  15.08  13.86 
 65 T205 - Prevent Breast Cancer powered by Endomag  06/20/2019 13:06 76.93  17.22  13.73 
 66 T205 - Prevent Breast Cancer powered by Endomag  06/20/2019 15:12 76.93  17.22  13.73